Airfield :







YOU CAN JOIN US ON...

 
LOGIN :

Register | Disclaimer

   EN    FR    IT 

 









Legend :    VFR   Marginal VFR   IFR   Intensive IFR   Very Intensive IFR
Visi :
Ceiling :
>= 8 km
>= 3000ft
5 to 8 km
1000 to 3000 ft
1500m to 5 km
500 to 1000 ft
800 to 1500m
200 to 500 ft
< 800m
< 200 ft
Symbols :   Thunderstorms  Fog  Heavy snow  Heavy precipitations  Wind > 20 kt







- Airport Elevation : 285 ft
- IATA code : ALB


KALB - Albany International

CURRENT METAR :
  • 231402Z 30022G30KT 10SM BKN030 BKN035 BKN250 M02/M08 A2978 RMK AO2 PK WND 32030/1357 T10171083

EXPIRED METARs :
  • 231351Z 30026G41KT 10SM BKN028 BKN035 BKN060 BKN250 M02/M08 A2978 RMK AO2 PK WND 30041/1346 SLP089 T10171083
  • 231320Z 30022G36KT 10SM BKN027 BKN033 BKN060 M02/M09 A2977 RMK AO2 PK WND 30040/1301 T10221089
  • 231251Z 30023G36KT 10SM FEW026 SCT050 BKN060 M02/M08 A2975 RMK AO2 PK WND 29037/1222 SLP078 T10221083
  • 231151Z 29018G39KT 10SM FEW025 BKN055 M02/M08 A2972 RMK AO2 PK WND 30039/1146 SLP067 60000 70007 T10221083 11011 21022 51052

TAF KALB
Valid from the 23 at 13:00 until the 24 at 12:00 UTC


231328Z 2313/2412 30025G35KT P6SM SCT025 BKN050
TEMPO 2313/2315 BKN025
FM231800 29020G30KT P6SM SCT050
FM232200 29015G25KT P6SM SKC
FM240200 28012G18KT P6SM SKC
FM240400 28008KT P6SM SKC
KZBW FIR / North America



MET'MAP, your aeronautical weather chart ! - Copyright ORBIFLY December 2007 - Disclaimer

ORBIFLY MET'MAP TEAM :

Programming & Development : Alexandra Zaïnal
Concept & Development : Baudouin d'Aumeries
Co-Development & Prog : Marc-Olivier Méhu
Technical & hardware support : Manuel Goepfert

Contact : metmap@orbifly.com




SOURCES & CREDITS :

   NOAA